createdAt,value
2019-03-16T00:01:57.086Z,5.47
2019-03-16T00:04:21.166Z,5.03
2019-03-16T00:06:49.477Z,5.67
2019-03-16T00:09:17.849Z,5.40
2019-03-16T00:11:46.347Z,5.17
2019-03-16T00:14:14.649Z,4.33
2019-03-16T00:16:43.018Z,3.98
2019-03-16T00:19:11.346Z,3.65
2019-03-16T00:21:40.090Z,3.10
2019-03-16T00:24:08.457Z,3.12
2019-03-16T00:26:36.879Z,3.25
2019-03-16T00:29:05.196Z,2.90
2019-03-16T00:31:33.766Z,3.30
2019-03-16T00:34:01.947Z,3.85
2019-03-16T00:36:30.356Z,3.62
2019-03-16T00:38:58.649Z,3.33
2019-03-16T00:41:27.176Z,3.77
2019-03-16T00:43:55.461Z,3.05
2019-03-16T00:46:23.869Z,2.80
2019-03-16T00:48:52.195Z,2.77
2019-03-16T00:51:21.080Z,2.65
2019-03-16T00:53:49.282Z,3.10
2019-03-16T00:56:17.959Z,3.17
2019-03-16T00:58:46.300Z,2.67
2019-03-16T01:01:14.748Z,3.50
2019-03-16T01:03:43.119Z,5.33
2019-03-16T01:06:11.527Z,4.90
2019-03-16T01:08:40.173Z,7.35
2019-03-16T01:11:08.591Z,6.37
2019-03-16T01:13:37.299Z,7.60
2019-03-16T01:16:05.633Z,6.58
2019-03-16T01:18:34.407Z,7.92
2019-03-16T01:21:02.651Z,6.97
2019-03-16T01:23:31.111Z,7.35
2019-03-16T01:26:02.167Z,7.00
2019-03-16T01:28:30.629Z,5.37
2019-03-16T01:30:59.275Z,7.35
2019-03-16T01:33:28.056Z,5.65
2019-03-16T01:35:56.670Z,5.90
2019-03-16T01:38:26.152Z,6.40
2019-03-16T01:40:54.669Z,5.25
2019-03-16T01:43:23.036Z,4.65
2019-03-16T01:45:51.503Z,3.80
2019-03-16T01:48:19.919Z,3.22
2019-03-16T01:50:48.169Z,3.98
2019-03-16T01:53:17.241Z,2.80
2019-03-16T01:55:45.364Z,2.87
2019-03-16T01:58:13.958Z,2.90
2019-03-16T02:00:42.424Z,2.90
2019-03-16T02:03:10.714Z,2.65
2019-03-16T02:05:39.183Z,2.58
2019-03-16T02:08:07.551Z,2.37
2019-03-16T02:10:35.824Z,2.95
2019-03-16T02:13:04.343Z,2.75
2019-03-16T02:15:32.596Z,3.27
2019-03-16T02:18:02.486Z,2.20
2019-03-16T02:20:31.069Z,3.00
2019-03-16T02:22:59.590Z,2.40
2019-03-16T02:25:28.297Z,2.08
2019-03-16T02:27:56.660Z,3.10
2019-03-16T02:30:25.062Z,2.35
2019-03-16T02:33:11.037Z,2.25
2019-03-16T02:35:23.925Z,3.05
2019-03-16T02:37:52.646Z,2.15
2019-03-16T02:40:20.981Z,2.50
2019-03-16T02:42:49.460Z,2.37
2019-03-16T02:45:17.807Z,2.90
2019-03-16T02:47:46.158Z,2.77
2019-03-16T02:50:14.817Z,3.27
2019-03-16T02:52:43.239Z,4.45
2019-03-16T02:55:11.607Z,2.02
2019-03-16T02:57:40.295Z,3.17
2019-03-16T03:00:09.674Z,2.98
2019-03-16T03:02:38.015Z,2.67
2019-03-16T03:05:07.678Z,2.80
2019-03-16T03:07:35.975Z,3.67
2019-03-16T03:10:05.778Z,2.80
2019-03-16T03:12:34.369Z,2.60
2019-03-16T03:15:02.980Z,3.85
2019-03-16T03:17:31.328Z,2.60
2019-03-16T03:19:59.720Z,2.62
2019-03-16T03:22:28.176Z,3.25
2019-03-16T03:24:56.616Z,2.67
2019-03-16T03:27:25.107Z,2.80
2019-03-16T03:29:57.133Z,3.30
2019-03-16T03:32:24.030Z,3.22
2019-03-16T03:34:52.470Z,2.98
2019-03-16T03:37:20.788Z,2.92
2019-03-16T03:39:49.165Z,3.47
2019-03-16T03:42:17.630Z,3.42
2019-03-16T03:44:45.947Z,3.12
2019-03-16T03:47:14.604Z,2.87
2019-03-16T03:49:43.000Z,2.90
2019-03-16T03:52:11.685Z,2.33
2019-03-16T03:54:40.309Z,2.62
2019-03-16T03:57:09.405Z,2.83
2019-03-16T03:59:37.786Z,2.52
2019-03-16T04:02:06.604Z,3.83
2019-03-16T04:04:35.166Z,3.42
2019-03-16T04:07:03.599Z,3.20
2019-03-16T04:09:33.431Z,3.65
2019-03-16T04:12:01.899Z,2.80
2019-03-16T04:14:30.220Z,3.10
2019-03-16T04:16:58.576Z,2.72
2019-03-16T04:19:27.289Z,3.22
2019-03-16T04:21:55.556Z,2.55
2019-03-16T04:24:24.005Z,2.60
2019-03-16T04:26:52.401Z,2.85
2019-03-16T04:29:20.772Z,3.22
2019-03-16T04:31:49.156Z,2.80
2019-03-16T04:34:28.464Z,3.45
2019-03-16T04:39:16.496Z,4.03
2019-03-16T04:41:44.799Z,3.25
2019-03-16T04:44:13.238Z,3.30
2019-03-16T04:46:41.619Z,3.20
2019-03-16T04:49:10.042Z,2.30
2019-03-16T04:51:38.346Z,3.85
2019-03-16T04:54:06.760Z,3.10
2019-03-16T04:56:35.082Z,3.42
2019-03-16T04:59:03.495Z,3.20
2019-03-16T05:01:31.825Z,3.22
2019-03-16T05:04:00.241Z,3.02
2019-03-16T05:06:28.658Z,3.10
2019-03-16T05:08:57.298Z,3.83
2019-03-16T05:11:25.734Z,2.70
2019-03-16T05:13:54.118Z,3.27
2019-03-16T05:16:22.787Z,3.33
2019-03-16T05:18:51.384Z,2.50
2019-03-16T05:21:20.254Z,2.85
2019-03-16T05:23:49.132Z,2.83
2019-03-16T05:26:17.794Z,2.83
2019-03-16T05:28:46.201Z,3.10
2019-03-16T05:31:14.863Z,3.87
2019-03-16T05:33:43.265Z,1.95
2019-03-16T05:36:11.953Z,2.30
2019-03-16T05:38:40.297Z,2.80
2019-03-16T05:41:08.713Z,2.52
2019-03-16T05:43:37.067Z,2.17
2019-03-16T05:46:05.779Z,2.58
2019-03-16T05:48:34.409Z,2.22
2019-03-16T05:51:02.809Z,2.70
2019-03-16T05:53:31.260Z,2.70
2019-03-16T05:55:59.917Z,3.05
2019-03-16T05:58:28.673Z,2.95
2019-03-16T06:00:57.442Z,2.70
2019-03-16T06:03:25.911Z,2.90
2019-03-16T06:05:54.786Z,2.60
2019-03-16T06:08:23.091Z,3.35
2019-03-16T06:10:51.626Z,2.52
2019-03-16T06:13:20.102Z,2.25
2019-03-16T06:15:48.579Z,2.83
2019-03-16T06:18:17.215Z,3.20
2019-03-16T06:20:45.840Z,2.80
2019-03-16T06:23:14.229Z,2.50
2019-03-16T06:25:42.607Z,3.30
2019-03-16T06:28:11.305Z,3.67
2019-03-16T06:30:42.438Z,3.60
2019-03-16T06:33:10.766Z,3.42
2019-03-16T06:35:39.254Z,3.02
2019-03-16T06:38:08.288Z,3.22
2019-03-16T06:40:36.901Z,3.27
2019-03-16T06:43:05.166Z,4.22
2019-03-16T06:45:33.975Z,3.42
2019-03-16T06:48:02.291Z,3.22
2019-03-16T06:50:31.073Z,2.83
2019-03-16T06:52:59.383Z,3.40
2019-03-16T06:55:27.845Z,4.30
2019-03-16T06:57:56.189Z,3.45
2019-03-16T07:00:24.821Z,3.05
2019-03-16T07:02:53.500Z,3.72
2019-03-16T07:05:23.649Z,5.45
2019-03-16T07:07:52.138Z,4.37
2019-03-16T07:10:20.643Z,3.55
2019-03-16T07:12:48.852Z,4.47
2019-03-16T07:15:17.603Z,3.72
2019-03-16T07:17:45.985Z,3.80
2019-03-16T07:20:14.400Z,4.20
2019-03-16T07:22:43.019Z,4.42
2019-03-16T07:25:11.408Z,3.80
2019-03-16T07:27:39.831Z,3.45
2019-03-16T07:30:08.104Z,4.05
2019-03-16T07:32:36.614Z,4.62
2019-03-16T07:35:05.783Z,4.28
2019-03-16T07:37:34.533Z,3.75
2019-03-16T07:40:03.260Z,3.12
2019-03-16T07:42:31.644Z,3.90
2019-03-16T07:45:07.978Z,4.95
2019-03-16T07:47:30.211Z,3.65
2019-03-16T07:49:58.912Z,4.03
2019-03-16T07:52:27.913Z,3.37
2019-03-16T07:54:56.265Z,3.33
2019-03-16T07:57:24.691Z,3.17
2019-03-16T07:59:53.041Z,3.20
2019-03-16T08:02:21.792Z,3.22
2019-03-16T08:04:50.728Z,2.85
2019-03-16T08:07:19.104Z,3.02
2019-03-16T08:09:47.760Z,3.15
2019-03-16T08:12:16.131Z,3.20
2019-03-16T08:14:44.921Z,3.42
2019-03-16T08:17:13.551Z,4.28
2019-03-16T08:19:42.183Z,3.00
2019-03-16T08:22:10.603Z,4.00
2019-03-16T08:24:38.945Z,3.75
2019-03-16T08:27:07.881Z,4.78
2019-03-16T08:29:36.378Z,4.42
2019-03-16T08:32:04.742Z,4.08
2019-03-16T08:34:33.045Z,3.92
2019-03-16T08:37:01.830Z,4.42
2019-03-16T08:39:30.209Z,4.00
2019-03-16T08:41:58.880Z,5.15
2019-03-16T08:44:27.201Z,4.30
2019-03-16T08:46:55.658Z,5.08
2019-03-16T08:49:23.974Z,4.67
2019-03-16T08:51:52.413Z,4.50
2019-03-16T08:54:20.775Z,4.22
2019-03-16T08:56:49.209Z,4.33
2019-03-16T08:59:17.500Z,4.50
2019-03-16T09:01:45.888Z,4.90
2019-03-16T09:04:14.287Z,5.65
2019-03-16T09:06:42.666Z,7.45
2019-03-16T09:09:11.044Z,4.83
2019-03-16T09:11:39.405Z,4.15
2019-03-16T09:14:08.279Z,4.17
2019-03-16T09:16:36.507Z,3.37
2019-03-16T09:19:04.840Z,3.08
2019-03-16T09:21:33.568Z,3.70
2019-03-16T09:24:02.254Z,3.52
2019-03-16T09:26:30.570Z,2.98
2019-03-16T09:29:00.199Z,2.42
2019-03-16T09:31:28.954Z,2.77
2019-03-16T09:33:57.619Z,2.85
2019-03-16T09:36:25.975Z,3.02
2019-03-16T09:38:54.304Z,3.22
2019-03-16T09:41:23.342Z,3.00
2019-03-16T09:43:52.037Z,3.12
2019-03-16T09:46:20.568Z,3.40
2019-03-16T09:48:49.162Z,4.37
2019-03-16T09:51:17.499Z,3.17
2019-03-16T09:53:45.958Z,4.83
2019-03-16T09:56:14.509Z,3.60
2019-03-16T09:58:42.973Z,4.17
2019-03-16T10:01:11.293Z,3.92
2019-03-16T10:03:39.722Z,4.17
2019-03-16T10:06:08.328Z,4.30
2019-03-16T10:08:36.750Z,3.10
2019-03-16T10:11:05.139Z,3.80
2019-03-16T10:13:33.857Z,3.52
2019-03-16T10:16:02.509Z,3.42
2019-03-16T10:18:31.162Z,3.33
2019-03-16T10:20:59.581Z,3.70
2019-03-16T10:23:28.614Z,4.15
2019-03-16T10:25:56.909Z,3.87
2019-03-16T10:28:25.783Z,3.90
2019-03-16T10:30:54.907Z,3.02
2019-03-16T10:33:23.639Z,3.02
2019-03-16T10:35:52.094Z,3.27
2019-03-16T10:38:20.407Z,3.45
2019-03-16T10:40:51.211Z,3.40
2019-03-16T10:43:19.604Z,3.67
2019-03-16T10:45:48.060Z,3.67
2019-03-16T10:48:16.390Z,3.52
2019-03-16T10:50:45.006Z,3.17
2019-03-16T10:53:13.401Z,4.03
2019-03-16T10:55:42.112Z,4.08
2019-03-16T10:58:10.504Z,4.53
2019-03-16T11:00:38.917Z,4.47
2019-03-16T11:03:07.643Z,3.87
2019-03-16T11:05:36.008Z,4.40
2019-03-16T11:08:04.607Z,4.28
2019-03-16T11:10:33.417Z,3.50
2019-03-16T11:13:01.720Z,4.05
2019-03-16T11:15:30.125Z,3.52
2019-03-16T11:17:58.451Z,3.20
2019-03-16T11:20:27.207Z,3.00
2019-03-16T11:22:55.500Z,3.50
2019-03-16T11:25:23.834Z,3.30
2019-03-16T11:27:52.318Z,3.08
2019-03-16T11:30:20.652Z,2.90
2019-03-16T11:32:49.337Z,2.70
2019-03-16T11:35:18.004Z,2.42
2019-03-16T11:37:46.674Z,3.62
2019-03-16T11:40:15.391Z,3.15
2019-03-16T11:42:44.128Z,2.83
2019-03-16T11:45:13.056Z,2.90
2019-03-16T11:47:41.423Z,3.20
2019-03-16T11:50:10.240Z,3.25
2019-03-16T11:52:38.520Z,3.00
2019-03-16T11:55:07.636Z,2.80
2019-03-16T11:57:36.293Z,2.67
2019-03-16T12:00:05.260Z,2.22
2019-03-16T12:02:33.517Z,2.55
2019-03-16T12:05:01.970Z,2.20
2019-03-16T12:07:30.175Z,2.55
2019-03-16T12:09:58.745Z,2.60
2019-03-16T12:12:27.122Z,2.47
2019-03-16T12:14:55.812Z,2.58
2019-03-16T12:17:24.054Z,2.87
2019-03-16T12:19:52.610Z,3.30
2019-03-16T12:22:20.867Z,3.22
2019-03-16T12:24:49.937Z,3.40
2019-03-16T12:27:18.977Z,3.35
2019-03-16T12:29:47.666Z,2.65
2019-03-16T12:32:16.038Z,2.90
2019-03-16T12:34:44.438Z,2.47
2019-03-16T12:37:12.728Z,2.80
2019-03-16T12:39:40.957Z,4.97
2019-03-16T12:42:09.818Z,2.52
2019-03-16T12:44:38.495Z,2.02
2019-03-16T12:47:06.950Z,2.62
2019-03-16T12:49:35.222Z,2.90
2019-03-16T12:52:03.661Z,2.33
2019-03-16T12:54:32.371Z,2.60
2019-03-16T12:57:00.718Z,2.50
2019-03-16T12:59:29.783Z,2.42
2019-03-16T13:01:58.365Z,2.25
2019-03-16T13:04:26.781Z,2.37
2019-03-16T13:06:55.128Z,3.85
2019-03-16T13:09:23.836Z,3.75
2019-03-16T13:11:52.510Z,3.50
2019-03-16T13:14:20.909Z,3.72
2019-03-16T13:16:49.491Z,3.33
2019-03-16T13:19:18.013Z,3.27
2019-03-16T13:21:46.750Z,3.92
2019-03-16T13:24:15.729Z,4.03
2019-03-16T13:26:44.062Z,3.25
2019-03-16T13:29:12.533Z,3.62
2019-03-16T13:31:41.743Z,2.77
2019-03-16T13:34:10.270Z,2.85
2019-03-16T13:36:39.104Z,4.00
2019-03-16T13:39:07.970Z,3.98
2019-03-16T13:41:36.850Z,3.02
2019-03-16T13:44:05.735Z,4.58
2019-03-16T13:46:34.495Z,4.28
2019-03-16T13:49:05.653Z,4.40
2019-03-16T13:51:34.312Z,4.37
2019-03-16T13:54:02.783Z,4.20
2019-03-16T13:56:31.372Z,4.45
2019-03-16T13:58:59.747Z,4.03
2019-03-16T14:01:28.180Z,4.45
2019-03-16T14:03:56.535Z,4.53
2019-03-16T14:06:25.267Z,4.08
2019-03-16T14:08:54.196Z,4.37
2019-03-16T14:11:22.655Z,4.17
2019-03-16T14:13:51.245Z,4.08
2019-03-16T14:16:20.064Z,4.35
2019-03-16T14:18:48.612Z,3.70
2019-03-16T14:21:17.032Z,3.22
2019-03-16T14:23:45.409Z,3.60
2019-03-16T14:26:14.058Z,5.00
2019-03-16T14:28:42.446Z,5.00
2019-03-16T14:31:11.158Z,3.60
2019-03-16T14:33:39.492Z,3.30
2019-03-16T14:36:08.173Z,3.65
2019-03-16T14:38:36.560Z,6.05
2019-03-16T14:41:05.369Z,4.03
2019-03-16T14:43:34.280Z,4.30
2019-03-16T14:46:02.656Z,3.72
2019-03-16T14:48:31.284Z,3.87
2019-03-16T14:50:59.518Z,4.22
2019-03-16T14:53:28.131Z,4.83
2019-03-16T14:55:56.789Z,5.78
2019-03-16T14:58:25.245Z,5.30
2019-03-16T15:00:53.900Z,5.00
2019-03-16T15:03:22.537Z,5.75
2019-03-16T15:05:51.296Z,5.90
2019-03-16T15:08:19.904Z,6.35
2019-03-16T15:10:48.278Z,6.12
2019-03-16T15:13:17.041Z,5.70
2019-03-16T15:15:45.510Z,5.17
2019-03-16T15:18:13.741Z,6.05
2019-03-16T15:20:42.799Z,5.50
2019-03-16T15:23:11.394Z,5.17
2019-03-16T15:25:40.063Z,8.90
2019-03-16T15:28:08.546Z,6.28
2019-03-16T15:30:49.739Z,5.87
2019-03-16T15:33:07.813Z,5.60
2019-03-16T15:35:36.080Z,6.05
2019-03-16T15:38:04.770Z,5.45
2019-03-16T15:40:33.422Z,6.35
2019-03-16T15:43:02.752Z,5.17
2019-03-16T15:45:31.117Z,6.20
2019-03-16T15:47:59.577Z,5.80
2019-03-16T15:50:27.842Z,6.95
2019-03-16T15:52:56.629Z,6.47
2019-03-16T15:55:25.212Z,6.35
2019-03-16T15:58:06.765Z,7.78
2019-03-16T16:00:23.817Z,7.08
2019-03-16T16:02:52.593Z,7.75
2019-03-16T16:05:21.278Z,8.03
2019-03-16T16:07:49.953Z,7.10
2019-03-16T16:10:18.593Z,7.92
2019-03-16T16:12:47.314Z,9.05
2019-03-16T16:15:16.255Z,7.78
2019-03-16T16:17:44.729Z,7.78
2019-03-16T16:20:13.062Z,8.63
2019-03-16T16:22:41.432Z,9.53
2019-03-16T16:25:10.523Z,9.05
2019-03-16T16:27:38.835Z,8.00
2019-03-16T16:30:09.444Z,8.70
2019-03-16T16:32:37.759Z,8.75
2019-03-16T16:35:06.698Z,7.87
2019-03-16T16:37:35.129Z,8.88
2019-03-16T16:40:04.029Z,8.70
2019-03-16T16:42:32.499Z,8.98
2019-03-16T16:45:03.289Z,8.28
2019-03-16T16:47:31.724Z,8.53
2019-03-16T16:50:00.046Z,8.28
2019-03-16T16:52:28.432Z,10.20
2019-03-16T16:54:56.795Z,8.35
2019-03-16T16:57:25.545Z,10.65
2019-03-16T16:59:53.866Z,12.05
2019-03-16T17:02:22.326Z,13.20
2019-03-16T17:04:51.401Z,12.75
2019-03-16T17:07:19.926Z,14.10
2019-03-16T17:09:48.217Z,13.88
2019-03-16T17:12:17.190Z,13.60
2019-03-16T17:14:45.709Z,15.23
2019-03-16T17:17:14.060Z,13.50
2019-03-16T17:19:42.453Z,14.25
2019-03-16T17:22:11.511Z,13.40
2019-03-16T17:24:39.814Z,14.95
2019-03-16T17:27:08.334Z,11.60
2019-03-16T17:29:37.225Z,13.00
2019-03-16T17:32:05.551Z,13.35
2019-03-16T17:34:34.280Z,12.93
2019-03-16T17:37:02.764Z,12.90
2019-03-16T17:39:31.045Z,12.25
2019-03-16T17:41:59.387Z,12.13
2019-03-16T17:44:27.818Z,13.40
2019-03-16T17:46:56.490Z,13.95
2019-03-16T17:49:24.931Z,13.20
2019-03-16T17:51:53.521Z,11.83
2019-03-16T17:54:21.972Z,13.35
2019-03-16T17:56:50.943Z,14.18
2019-03-16T17:59:19.457Z,12.75
2019-03-16T18:01:54.610Z,13.93
2019-03-16T18:04:18.579Z,13.32
2019-03-16T18:06:47.227Z,15.10
2019-03-16T18:09:15.954Z,16.30
2019-03-16T18:11:44.498Z,14.78
2019-03-16T18:14:13.006Z,16.12
2019-03-16T18:16:41.379Z,14.65
2019-03-16T18:19:10.506Z,14.70
2019-03-16T18:21:39.356Z,15.83
2019-03-16T18:24:07.863Z,16.65
2019-03-16T18:26:36.960Z,16.48
2019-03-16T18:29:05.399Z,17.90
2019-03-16T18:31:33.829Z,21.33
2019-03-16T18:34:02.127Z,22.48
2019-03-16T18:36:30.498Z,17.90
2019-03-16T18:38:58.914Z,17.73
2019-03-16T18:41:27.643Z,17.00
2019-03-16T18:43:56.021Z,18.57
2019-03-16T18:46:24.360Z,21.95
2019-03-16T18:48:52.758Z,20.15
2019-03-16T18:51:21.108Z,18.82
2019-03-16T18:53:49.606Z,22.95
2019-03-16T18:56:18.273Z,19.75
2019-03-16T18:58:47.303Z,21.45
2019-03-16T19:01:15.901Z,22.35
2019-03-16T19:03:44.379Z,20.52
2019-03-16T19:06:12.769Z,20.27
2019-03-16T19:08:41.056Z,18.30
2019-03-16T19:11:09.981Z,20.80
2019-03-16T19:13:38.397Z,24.15
2019-03-16T19:16:06.880Z,24.05
2019-03-16T19:18:35.515Z,21.35
2019-03-16T19:21:04.033Z,20.17
2019-03-16T19:23:32.580Z,21.27
2019-03-16T19:26:00.715Z,19.95
2019-03-16T19:28:28.952Z,19.92
2019-03-16T19:30:57.347Z,20.88
2019-03-16T19:33:26.046Z,20.30
2019-03-16T19:35:54.371Z,22.70
2019-03-16T19:38:22.767Z,21.85
2019-03-16T19:40:51.396Z,20.95
2019-03-16T19:43:20.429Z,17.87
2019-03-16T19:45:49.118Z,18.35
2019-03-16T19:48:17.452Z,15.72
2019-03-16T19:50:45.892Z,18.12
2019-03-16T19:53:14.283Z,18.87
2019-03-16T19:55:42.683Z,17.05
2019-03-16T19:58:11.035Z,18.12
2019-03-16T20:00:39.399Z,17.20
2019-03-16T20:03:07.832Z,18.37
2019-03-16T20:05:36.541Z,17.95
2019-03-16T20:08:05.477Z,19.95
2019-03-16T20:10:33.960Z,20.55
2019-03-16T20:13:05.166Z,20.17
2019-03-16T20:15:34.036Z,22.05
2019-03-16T20:18:02.352Z,19.73
2019-03-16T20:20:30.794Z,20.20
2019-03-16T20:22:59.459Z,19.35
2019-03-16T20:25:27.884Z,18.77
2019-03-16T20:27:56.491Z,18.05
2019-03-16T20:30:26.932Z,16.73
2019-03-16T20:33:03.881Z,17.17
2019-03-16T20:35:25.644Z,18.85
2019-03-16T20:37:54.272Z,17.40
2019-03-16T20:40:22.807Z,17.48
2019-03-16T20:42:51.128Z,16.90
2019-03-16T20:45:19.935Z,17.37
2019-03-16T20:47:48.795Z,17.42
2019-03-16T20:50:17.719Z,18.02
2019-03-16T20:52:46.422Z,17.85
2019-03-16T20:55:15.162Z,16.87
2019-03-16T20:57:43.444Z,16.60
2019-03-16T21:00:11.951Z,17.70
2019-03-16T21:02:40.502Z,15.78
2019-03-16T21:05:09.317Z,16.55
2019-03-16T21:07:37.953Z,15.88
2019-03-16T21:10:06.990Z,14.05
2019-03-16T21:12:35.665Z,15.03
2019-03-16T21:15:04.855Z,17.05
2019-03-16T21:17:33.303Z,17.30
2019-03-16T21:20:02.063Z,16.50
2019-03-16T21:22:35.493Z,19.95
2019-03-16T21:25:02.017Z,17.55
2019-03-16T21:27:30.532Z,18.35
2019-03-16T21:29:58.912Z,18.50
2019-03-16T21:32:27.190Z,20.62
2019-03-16T21:34:56.058Z,18.27
2019-03-16T21:37:24.340Z,21.52
2019-03-16T21:39:52.750Z,20.72
2019-03-16T21:42:21.116Z,21.42
2019-03-16T21:44:49.566Z,21.05
2019-03-16T21:47:18.162Z,22.05
2019-03-16T21:49:46.834Z,24.05
2019-03-16T21:52:15.312Z,23.83
2019-03-16T21:54:43.996Z,24.75
2019-03-16T21:57:12.338Z,21.48
2019-03-16T21:59:41.089Z,25.80
2019-03-16T22:02:09.530Z,23.70
2019-03-16T22:04:37.695Z,24.77
2019-03-16T22:07:06.202Z,24.25
2019-03-16T22:09:34.550Z,24.02
2019-03-16T22:12:03.338Z,27.98
2019-03-16T22:14:31.918Z,24.65
2019-03-16T22:17:02.014Z,25.23
2019-03-16T22:19:30.503Z,22.07
2019-03-16T22:21:59.144Z,23.18
2019-03-16T22:24:27.573Z,23.62
2019-03-16T22:26:55.997Z,22.93
2019-03-16T22:29:24.663Z,22.62
2019-03-16T22:31:53.366Z,21.00
2019-03-16T22:34:21.637Z,22.87
2019-03-16T22:36:50.098Z,23.75
2019-03-16T22:39:18.447Z,22.22
2019-03-16T22:41:46.860Z,25.68
2019-03-16T22:44:15.650Z,23.67
2019-03-16T22:46:43.973Z,25.70
2019-03-16T22:49:12.301Z,24.55
2019-03-16T22:51:40.712Z,24.07
2019-03-16T22:54:09.171Z,26.05
2019-03-16T22:56:37.443Z,23.83
2019-03-16T22:59:05.799Z,23.57
2019-03-16T23:01:34.904Z,23.95
2019-03-16T23:04:07.006Z,22.90
2019-03-16T23:06:34.103Z,21.40
2019-03-16T23:09:05.978Z,21.55
2019-03-16T23:11:34.827Z,21.85
2019-03-16T23:14:03.257Z,22.87
2019-03-16T23:16:31.873Z,22.07
2019-03-16T23:19:00.355Z,20.23
2019-03-16T23:21:28.550Z,20.10
2019-03-16T23:23:56.967Z,19.40
2019-03-16T23:26:25.409Z,17.95
2019-03-16T23:28:54.066Z,18.20
2019-03-16T23:31:22.457Z,19.82
2019-03-16T23:33:51.128Z,18.25
2019-03-16T23:36:19.818Z,17.42
2019-03-16T23:38:48.471Z,16.12
2019-03-16T23:41:17.644Z,17.00
2019-03-16T23:43:45.877Z,15.03
2019-03-16T23:46:14.552Z,15.03
2019-03-16T23:48:43.242Z,14.55
2019-03-16T23:51:11.631Z,15.90
2019-03-16T23:53:40.005Z,13.95
2019-03-16T23:56:08.420Z,12.60
2019-03-16T23:58:36.655Z,13.45
